Time;durP1;ratioP1;P1;durP2;ratioP2;P2;SDS_P1;SDS_P2;PMS_P1;PMS_P2;Temp;Humidity;BMP_temperature;BMP_pressure;BME280_temperature;BME280_humidity;BME280_pressure;Samples;Min_cycle;Max_cycle;Signal;HPM_P1;HPM_P2
2021/06/03 00:01:45;;;;;;;18.17;14.90;;;;;;;18.15;75.08;101147.09;4966319;29;20063;-83
2021/06/03 00:04:19;;;;;;;16.42;14.35;;;;;;;18.05;75.55;101144.19;4951352;23;20082;-83
2021/06/03 00:07:11;;;;;;;16.92;13.95;;;;;;;17.90;76.04;101145.09;5048725;23;20066;-82
2021/06/03 00:09:49;;;;;;;16.15;13.82;;;;;;;17.59;75.88;101097.66;4982029;28;20039;-82
2021/06/03 00:12:17;;;;;;;16.33;13.00;;;;;;;17.88;76.14;101141.69;4982407;28;20066;-82
2021/06/03 00:14:44;;;;;;;16.00;12.52;;;;;;;17.68;76.14;101129.75;4969776;29;20035;-82
2021/06/03 00:17:13;;;;;;;13.85;10.93;;;;;;;17.72;76.25;101142.66;4953064;29;20039;-82
2021/06/03 00:19:38;;;;;;;13.63;11.68;;;;;;;17.49;77.07;101130.88;4972616;28;20051;-83
2021/06/03 00:22:07;;;;;;;14.15;11.25;;;;;;;17.56;76.97;101137.44;4970319;29;20049;-82
2021/06/03 00:24:51;;;;;;;;;;;;;;;17.48;77.31;101147.63;4988757;23;20114;-81
2021/06/03 00:27:55;;;;;;;13.65;10.10;;;;;;;17.54;77.13;101155.19;5108374;23;19962;-82
2021/06/03 00:30:20;;;;;;;12.15;10.80;;;;;;;17.50;77.13;101160.72;4931370;29;20051;-83
2021/06/03 00:32:49;;;;;;;12.73;9.90;;;;;;;17.52;77.20;101161.50;4943593;29;20123;-83
2021/06/03 00:35:16;;;;;;;11.73;9.93;;;;;;;17.39;77.38;101162.25;4955729;29;20035;-82
2021/06/03 00:37:42;;;;;;;12.90;11.18;;;;;;;17.21;78.40;101179.13;4961567;29;20031;-82
2021/06/03 00:40:10;;;;;;;14.45;10.93;;;;;;;17.08;78.97;101171.94;4960758;29;20053;-82
2021/06/03 00:42:36;;;;;;;13.20;10.55;;;;;;;17.17;78.26;101169.72;4963920;29;20043;-84
2021/06/03 00:45:14;;;;;;;13.55;10.68;;;;;;;17.05;78.11;101151.03;4951755;28;20034;-80
2021/06/03 00:47:43;;;;;;;15.02;12.40;;;;;;;16.98;78.53;101175.19;4979903;28;20050;-79
2021/06/03 00:50:33;;;;;;;13.43;10.60;;;;;;;17.03;78.54;101176.63;4967229;28;20107;-81
2021/06/03 00:53:14;;;;;;;13.45;12.05;;;;;;;16.91;78.94;101175.50;4960624;28;20039;-78
2021/06/03 00:55:52;;;;;;;16.35;12.02;;;;;;;16.97;78.91;101169.06;5010977;23;21464;-81
2021/06/03 00:58:28;;;;;;;17.00;13.05;;;;;;;16.80;79.12;101167.38;5045968;23;20043;-79
2021/06/03 01:00:58;;;;;;;15.43;12.40;;;;;;;16.79;79.34;101174.41;5148176;23;20102;-81
2021/06/03 01:03:36;;;;;;;17.65;13.13;;;;;;;16.59;79.59;101162.38;4999800;28;20027;-80
2021/06/03 01:06:07;;;;;;;15.60;12.93;;;;;;;16.54;80.04;101177.59;4957142;28;20039;-82
2021/06/03 01:08:47;;;;;;;15.52;12.50;;;;;;;16.48;80.42;101172.69;4961727;29;20054;-82
2021/06/03 01:11:48;;;;;;;19.95;13.38;;;;;;;16.49;80.07;101175.22;4978073;28;20093;-82
2021/06/03 01:14:45;;;;;;;17.10;13.48;;;;;;;16.49;80.15;101179.66;4995809;28;20034;-82
2021/06/03 01:17:11;;;;;;;16.60;14.23;;;;;;;16.37;80.02;101178.53;4979819;28;20037;-82
2021/06/03 01:19:41;;;;;;;16.95;13.70;;;;;;;16.43;79.73;101170.28;4973941;28;20047;-81
2021/06/03 01:22:14;;;;;;;18.17;13.63;;;;;;;16.32;79.92;101172.69;4983113;28;20054;-81
2021/06/03 01:24:47;;;;;;;18.40;15.07;;;;;;;16.22;80.26;101168.81;4981849;28;20031;-81
2021/06/03 01:27:21;;;;;;;18.05;14.85;;;;;;;16.19;80.33;101176.91;4959305;28;20046;-82
2021/06/03 01:30:29;;;;;;;20.08;15.13;;;;;;;16.23;80.00;101174.00;4981318;28;20045;-82
2021/06/03 01:33:27;;;;;;;21.95;16.75;;;;;;;16.00;80.71;101172.63;4975940;29;20067;-82
2021/06/03 01:36:01;;;;;;;19.25;15.90;;;;;;;15.97;80.60;101188.59;4989029;23;20051;-80
2021/06/03 01:38:38;;;;;;;21.67;16.80;;;;;;;15.73;80.27;101135.44;4941850;29;20098;-81
2021/06/03 01:41:11;;;;;;;23.52;17.13;;;;;;;16.19;79.72;101185.66;4965067;29;20055;-82
2021/06/03 01:43:43;;;;;;;20.02;15.95;;;;;;;16.25;79.20;101187.94;4971118;29;20044;-82
2021/06/03 01:46:14;;;;;;;21.33;16.45;;;;;;;16.20;79.15;101191.75;4958707;29;20174;-82
2021/06/03 01:48:41;;;;;;;21.52;16.27;;;;;;;16.19;78.64;101190.91;4970382;29;20518;-81
2021/06/03 01:51:16;;;;;;;21.85;17.20;;;;;;;16.16;78.32;101201.59;4966146;29;20031;-81
2021/06/03 01:53:42;;;;;;;19.83;15.20;;;;;;;16.16;78.25;101205.09;4947577;29;20049;-81
2021/06/03 01:56:13;;;;;;;19.80;15.60;;;;;;;16.12;78.05;101206.19;4960293;28;20468;-81
2021/06/03 01:58:39;;;;;;;19.73;15.93;;;;;;;15.81;77.78;101167.47;4959543;29;20035;-81
2021/06/03 02:01:06;;;;;;;19.27;15.75;;;;;;;15.99;78.38;101202.50;4967689;28;20038;-81
2021/06/03 02:03:31;;;;;;;18.70;15.27;;;;;;;15.86;78.35;101172.53;4958899;28;20452;-81
2021/06/03 02:05:57;;;;;;;19.13;16.27;;;;;;;15.93;78.28;101210.72;4957732;28;20043;-79
2021/06/03 02:08:23;;;;;;;20.35;16.42;;;;;;;15.79;77.97;101201.75;4957242;28;20077;-80
2021/06/03 02:10:50;;;;;;;20.75;15.90;;;;;;;15.83;77.87;101208.59;4958643;29;20543;-80
2021/06/03 02:13:18;;;;;;;21.10;16.35;;;;;;;15.89;78.00;101217.94;4958050;28;20035;-81
2021/06/03 02:16:03;;;;;;;18.30;15.70;;;;;;;15.87;77.72;101224.22;4947550;29;20034;-80
2021/06/03 02:18:36;;;;;;;;;;;;;;;15.79;77.85;101227.22;4953537;29;20047;-81
2021/06/03 02:21:03;;;;;;;18.65;15.07;;;;;;;15.51;78.14;101203.19;4958184;28;19927;-81
2021/06/03 02:23:30;;;;;;;19.73;15.80;;;;;;;15.58;78.02;101221.28;4957951;28;20480;-81
2021/06/03 02:26:00;;;;;;;17.48;15.35;;;;;;;15.81;77.96;101231.47;4958151;28;20374;-81
2021/06/03 02:28:28;;;;;;;18.88;15.05;;;;;;;15.91;77.49;101237.16;4954568;29;20035;-80
2021/06/03 02:30:55;;;;;;;17.35;15.13;;;;;;;15.95;76.79;101232.56;4958608;28;20051;-81
2021/06/03 02:33:21;;;;;;;17.85;15.23;;;;;;;16.00;77.04;101236.69;4958782;28;20038;-81
2021/06/03 02:35:47;;;;;;;18.60;15.32;;;;;;;16.00;76.11;101238.44;4958391;28;20031;-80
2021/06/03 02:38:14;;;;;;;19.30;15.82;;;;;;;15.72;76.75;101226.72;4958611;29;20048;-80
2021/06/03 02:40:42;;;;;;;21.67;16.05;;;;;;;15.44;77.22;101207.06;4963536;29;20038;-80
2021/06/03 02:43:08;;;;;;;18.88;16.83;;;;;;;15.45;77.54;101229.81;4972721;28;20031;-79
2021/06/03 02:45:34;;;;;;;20.15;15.95;;;;;;;15.53;77.52;101245.19;4975713;28;20091;-80
2021/06/03 02:48:01;;;;;;;17.80;15.48;;;;;;;15.48;77.35;101231.44;4973075;29;20060;-79
2021/06/03 02:50:27;;;;;;;18.85;15.27;;;;;;;15.55;77.09;101253.88;4975792;29;20039;-79
2021/06/03 02:52:54;;;;;;;19.10;16.75;;;;;;;15.15;78.01;101224.28;4970323;28;20122;-80
2021/06/03 02:55:22;;;;;;;20.98;16.73;;;;;;;15.27;78.23;101251.75;4957629;29;20062;-80
2021/06/03 02:57:47;;;;;;;22.13;17.33;;;;;;;15.34;78.03;101261.03;4957941;28;20045;-80
2021/06/03 03:00:17;;;;;;;20.88;16.20;;;;;;;15.38;77.97;101259.97;4956966;29;20031;-81
2021/06/03 03:02:43;;;;;;;24.52;16.67;;;;;;;15.40;77.99;101271.25;4956948;29;20027;-79
2021/06/03 03:05:09;;;;;;;19.58;16.55;;;;;;;15.33;77.68;101251.44;4948237;29;20043;-80
2021/06/03 03:07:36;;;;;;;21.75;17.75;;;;;;;15.37;77.92;101282.78;4939845;29;20131;-81
2021/06/03 03:10:05;;;;;;;27.30;18.27;;;;;;;15.27;78.40;101289.44;4951915;29;20472;-80
2021/06/03 03:12:30;;;;;;;21.77;18.52;;;;;;;15.26;78.65;101292.13;4957312;28;20038;-81
2021/06/03 03:14:56;;;;;;;24.60;19.27;;;;;;;15.11;78.81;101276.19;4956859;28;20036;-81
2021/06/03 03:17:21;;;;;;;23.48;18.92;;;;;;;14.85;79.11;101238.81;4956763;28;20114;-81
2021/06/03 03:19:47;;;;;;;24.88;19.17;;;;;;;15.31;78.84;101301.50;4956981;28;20141;-80
2021/06/03 03:22:12;;;;;;;25.23;20.05;;;;;;;15.22;78.47;101288.78;4957504;29;20141;-80
2021/06/03 03:24:39;;;;;;;27.35;19.92;;;;;;;15.44;77.98;101306.16;4957933;29;20040;-81
2021/06/03 03:27:05;;;;;;;28.85;20.58;;;;;;;15.39;78.27;101298.47;4957090;29;20039;-81
2021/06/03 03:29:30;;;;;;;28.98;21.15;;;;;;;15.32;78.64;101308.47;4956960;29;20484;-81
2021/06/03 03:31:56;;;;;;;31.55;21.65;;;;;;;15.36;78.50;101311.81;4956577;29;20031;-81
2021/06/03 03:34:21;;;;;;;29.50;21.33;;;;;;;15.42;78.12;101306.25;4957004;29;20056;-81
2021/06/03 03:36:47;;;;;;;31.40;21.67;;;;;;;15.50;77.70;101312.00;4955963;29;20055;-80
2021/06/03 03:39:13;;;;;;;33.85;23.13;;;;;;;15.30;78.36;101317.38;4956807;29;20032;-81
2021/06/03 03:41:38;;;;;;;31.80;22.67;;;;;;;15.19;78.91;101310.81;4942819;29;20035;-81
2021/06/03 03:44:04;;;;;;;37.17;23.27;;;;;;;15.20;78.30;101299.38;4956208;29;20063;-81
2021/06/03 03:46:31;;;;;;;37.25;25.05;;;;;;;15.23;78.63;101323.84;4956469;29;20038;-83
2021/06/03 03:48:56;;;;;;;37.28;25.08;;;;;;;14.96;79.43;101309.28;4956868;29;20168;-81
2021/06/03 03:51:23;;;;;;;33.92;24.83;;;;;;;15.13;79.28;101332.16;4966025;29;20082;-82
2021/06/03 03:53:48;;;;;;;35.15;23.38;;;;;;;15.21;79.21;101330.03;4974105;29;20031;-81
2021/06/03 03:56:14;;;;;;;35.22;25.08;;;;;;;15.16;78.69;101310.13;4961253;29;20045;-80
2021/06/03 03:58:42;;;;;;;34.80;25.33;;;;;;;15.31;77.98;101322.53;4954591;28;20112;-80
2021/06/03 04:01:10;;;;;;;34.97;23.77;;;;;;;15.29;78.04;101323.53;4954997;28;20043;-81
2021/06/03 04:03:36;;;;;;;36.00;24.98;;;;;;;15.37;77.69;101332.75;4948940;29;20042;-81
2021/06/03 04:06:03;;;;;;;38.38;24.95;;;;;;;15.21;78.15;101332.66;4956247;29;20039;-82
2021/06/03 04:08:28;;;;;;;33.35;24.48;;;;;;;15.43;77.60;101342.16;4956044;29;20038;-81
2021/06/03 04:10:54;;;;;;;33.15;23.52;;;;;;;15.10;77.04;101286.75;4956482;29;20471;-80
2021/06/03 04:13:20;;;;;;;33.67;25.17;;;;;;;15.48;77.05;101342.78;4956164;28;20039;-81
2021/06/03 04:15:46;;;;;;;32.20;23.90;;;;;;;15.57;76.64;101359.88;4955983;28;20061;-80
2021/06/03 04:18:11;;;;;;;36.08;25.25;;;;;;;15.30;76.93;101330.50;4956048;29;20032;-80
2021/06/03 04:20:37;;;;;;;32.58;25.33;;;;;;;15.34;77.44;101361.88;4955933;29;20046;-80
2021/06/03 04:23:03;;;;;;;31.25;25.42;;;;;;;15.24;77.50;101342.16;4956368;29;20035;-81
2021/06/03 04:25:29;;;;;;;33.25;24.50;;;;;;;15.50;76.96;101364.59;4957251;29;20040;-82
2021/06/03 04:27:55;;;;;;;33.30;25.10;;;;;;;15.42;76.60;101350.13;4958255;29;20130;-81
2021/06/03 04:30:23;;;;;;;33.55;24.48;;;;;;;15.27;77.02;101363.09;4957729;28;20062;-82
2021/06/03 04:32:50;;;;;;;35.00;24.77;;;;;;;15.29;76.96;101369.09;4956635;28;20035;-82
2021/06/03 04:35:17;;;;;;;32.88;24.25;;;;;;;15.34;76.46;101379.41;4942221;29;20050;-82
2021/06/03 04:37:44;;;;;;;30.77;22.52;;;;;;;15.36;76.19;101386.28;4956393;28;20074;-81
2021/06/03 04:40:11;;;;;;;30.35;23.27;;;;;;;15.23;76.00;101387.81;4956428;29;20046;-82
2021/06/03 04:42:37;;;;;;;31.10;23.00;;;;;;;15.16;76.10;101386.38;4956867;28;20035;-82
2021/06/03 04:45:04;;;;;;;30.50;22.70;;;;;;;15.05;76.17;101379.84;4948765;28;20101;-81
2021/06/03 04:47:30;;;;;;;32.85;23.25;;;;;;;14.91;76.07;101355.13;4955769;28;20047;-81
2021/06/03 04:49:55;;;;;;;31.10;22.25;;;;;;;15.25;75.75;101398.28;4955951;28;20035;-81
2021/06/03 04:52:31;;;;;;;31.15;21.67;;;;;;;15.19;75.80;101400.25;4956475;29;20160;-81
2021/06/03 04:55:06;;;;;;;29.42;22.05;;;;;;;15.07;76.47;101403.44;4956228;28;20039;-81
2021/06/03 04:57:32;;;;;;;32.42;22.50;;;;;;;14.95;76.57;101407.50;4955360;29;20031;-81
2021/06/03 04:59:58;;;;;;;28.42;22.15;;;;;;;15.08;76.65;101410.41;4955789;29;20051;-81
2021/06/03 05:02:24;;;;;;;30.10;24.02;;;;;;;14.93;76.39;101387.44;4956776;29;20382;-81
2021/06/03 05:04:51;;;;;;;32.10;24.30;;;;;;;15.01;76.88;101407.22;4956119;28;20400;-81
2021/06/03 05:07:16;;;;;;;33.30;23.70;;;;;;;14.96;76.76;101414.44;4955368;29;20070;-81
2021/06/03 05:09:42;;;;;;;31.88;22.92;;;;;;;14.81;76.84;101383.59;4956434;29;20067;-82
2021/06/03 05:12:09;;;;;;;33.78;23.20;;;;;;;15.06;76.49;101412.25;4956702;29;20062;-81
2021/06/03 05:14:35;;;;;;;30.38;23.00;;;;;;;14.98;76.38;101404.72;4956807;29;20038;-81
2021/06/03 05:17:01;;;;;;;31.15;23.30;;;;;;;14.70;76.60;101379.66;4956819;28;20042;-82
2021/06/03 05:19:26;;;;;;;28.73;22.60;;;;;;;14.85;76.41;101391.25;4936720;29;20126;-82
2021/06/03 05:21:52;;;;;;;30.10;23.23;;;;;;;14.96;76.33;101426.75;4956601;29;20399;-81
2021/06/03 05:24:18;;;;;;;31.50;23.20;;;;;;;14.74;76.56;101404.03;4957473;29;20094;-82
2021/06/03 05:26:43;;;;;;;33.25;21.63;;;;;;;14.90;76.43;101433.13;4954725;29;20476;-81
2021/06/03 05:29:14;;;;;;;30.80;21.55;;;;;;;14.78;76.22;101405.63;4954306;28;20118;-82
2021/06/03 05:31:41;;;;;;;29.15;22.45;;;;;;;14.78;76.35;101402.13;4955042;29;20039;-81
2021/06/03 05:34:06;;;;;;;31.27;23.50;;;;;;;14.86;76.90;101440.28;4957458;29;20829;-81
2021/06/03 05:36:33;;;;;;;29.95;23.15;;;;;;;14.78;77.06;101403.00;4956444;29;20062;-82
2021/06/03 05:38:59;;;;;;;31.13;22.42;;;;;;;15.11;76.83;101436.56;4956628;28;20471;-81
2021/06/03 05:41:25;;;;;;;30.73;24.10;;;;;;;14.97;77.03;101416.16;4957253;28;20043;-82
2021/06/03 05:43:52;;;;;;;30.17;24.23;;;;;;;15.02;77.11;101429.09;4959529;28;20039;-82
2021/06/03 05:46:17;;;;;;;32.80;24.30;;;;;;;14.98;77.53;101430.16;4960500;28;20039;-82
2021/06/03 05:48:43;;;;;;;33.25;23.30;;;;;;;15.01;77.77;101448.41;4961446;29;20042;-81
2021/06/03 05:51:08;;;;;;;29.90;20.80;;;;;;;14.72;78.06;101408.50;4960378;28;20046;-81
2021/06/03 05:53:33;;;;;;;33.28;19.13;;;;;;;14.79;77.36;101435.38;4952180;29;20038;-81
2021/06/03 05:55:59;;;;;;;26.45;17.35;;;;;;;14.25;77.40;101363.19;4963141;29;20035;-81
2021/06/03 05:58:24;;;;;;;30.23;17.80;;;;;;;14.57;77.86;101429.25;4963850;29;20070;-82
2021/06/03 06:00:50;;;;;;;27.65;18.40;;;;;;;14.65;78.14;101444.72;4974473;28;20051;-80
2021/06/03 06:03:21;;;;;;;25.83;17.60;;;;;;;14.68;77.09;101441.97;4972092;29;20038;-81
2021/06/03 06:06:09;;;;;;;26.95;17.13;;;;;;;14.73;77.06;101468.91;4962135;29;20035;-80
2021/06/03 06:08:35;;;;;;;25.58;16.27;;;;;;;14.57;77.19;101473.06;4971948;28;20236;-81
2021/06/03 06:11:00;;;;;;;23.60;16.50;;;;;;;14.58;77.07;101466.88;4962396;28;20132;-80
2021/06/03 06:13:28;;;;;;;22.55;15.20;;;;;;;14.62;76.15;101476.34;4964542;29;20035;-81
2021/06/03 06:15:54;;;;;;;22.17;15.20;;;;;;;14.58;75.76;101454.59;4963525;29;20514;-80
2021/06/03 06:18:20;;;;;;;18.77;13.10;;;;;;;14.73;74.91;101465.41;4962148;28;20031;-81
2021/06/03 06:20:47;;;;;;;20.17;13.60;;;;;;;14.73;74.88;101470.66;4961287;28;20042;-81
2021/06/03 06:23:14;;;;;;;21.52;12.88;;;;;;;14.51;74.53;101434.78;4961394;29;20500;-82
2021/06/03 06:25:42;;;;;;;20.10;12.77;;;;;;;14.72;74.07;101466.31;4961134;28;20380;-80
2021/06/03 06:28:10;;;;;;;19.50;13.30;;;;;;;14.76;73.78;101478.41;4962435;29;20039;-82
2021/06/03 06:30:36;;;;;;;21.90;12.85;;;;;;;14.81;74.18;101483.47;4946384;29;20039;-82
2021/06/03 06:33:02;;;;;;;19.02;12.95;;;;;;;14.69;74.01;101459.41;4961450;28;20053;-81
2021/06/03 06:35:28;;;;;;;19.67;13.60;;;;;;;14.95;73.71;101486.38;4959634;28;20035;-81
2021/06/03 06:37:55;;;;;;;17.38;12.75;;;;;;;15.09;73.29;101488.38;4950362;29;20044;-81
2021/06/03 06:40:21;;;;;;;18.20;13.05;;;;;;;14.95;73.06;101474.97;4961830;29;20039;-81
2021/06/03 06:42:53;;;;;;;16.20;12.63;;;;;;;15.09;72.78;101487.50;4960798;29;20032;-81
2021/06/03 06:45:21;;;;;;;14.57;12.50;;;;;;;15.20;72.45;101487.91;4961725;29;20042;-81
2021/06/03 06:47:47;;;;;;;18.02;11.93;;;;;;;15.07;72.53;101477.06;4959741;28;20393;-81
2021/06/03 06:50:13;;;;;;;20.90;12.95;;;;;;;15.30;72.35;101496.22;4961820;29;20031;-81
2021/06/03 06:52:40;;;;;;;17.10;12.10;;;;;;;15.41;71.32;101478.16;4961802;28;20041;-81
2021/06/03 06:55:07;;;;;;;17.10;11.65;;;;;;;15.60;70.98;101493.97;4942413;29;20090;-80
2021/06/03 06:57:33;;;;;;;16.55;11.40;;;;;;;15.53;70.73;101464.44;4962431;29;20099;-81
2021/06/03 06:59:59;;;;;;;14.77;11.60;;;;;;;15.73;70.34;101469.69;4958787;29;20069;-81
2021/06/03 07:02:25;;;;;;;18.67;12.75;;;;;;;15.78;69.62;101479.09;4947753;29;20039;-80
2021/06/03 07:04:51;;;;;;;16.55;10.90;;;;;;;15.89;69.69;101486.47;4976626;29;20031;-83
2021/06/03 07:07:17;;;;;;;14.48;10.88;;;;;;;15.86;68.88;101448.94;4977985;29;20103;-82
2021/06/03 07:09:43;;;;;;;15.23;11.10;;;;;;;16.08;68.20;101461.91;4977004;29;20040;-83
2021/06/03 07:12:11;;;;;;;16.77;10.90;;;;;;;16.26;67.96;101470.66;4967623;29;20039;-85
2021/06/03 07:14:36;;;;;;;16.88;10.43;;;;;;;16.46;66.99;101459.97;4968301;28;20114;-84
2021/06/03 07:17:02;;;;;;;15.60;11.13;;;;;;;16.63;66.87;101490.75;4966986;28;20038;-85
2021/06/03 07:19:29;;;;;;;14.05;10.38;;;;;;;16.56;66.99;101493.78;4965342;29;20066;-83
2021/06/03 07:21:54;;;;;;;13.85;10.23;;;;;;;16.44;67.04;101468.88;4940872;29;20400;-84
2021/06/03 07:24:20;;;;;;;14.57;10.63;;;;;;;16.35;66.71;101448.28;4952581;29;20042;-81
2021/06/03 07:26:46;;;;;;;15.05;11.27;;;;;;;16.43;66.72;101501.44;4968501;28;20078;-82
2021/06/03 07:29:12;;;;;;;20.52;11.68;;;;;;;16.34;67.76;101500.13;4980271;28;20035;-81
2021/06/03 07:31:40;;;;;;;16.02;10.55;;;;;;;16.35;67.34;101506.25;4980063;28;20050;-79
2021/06/03 07:34:06;;;;;;;16.15;10.98;;;;;;;16.41;67.01;101513.84;4973133;28;20110;-79
2021/06/03 07:36:33;;;;;;;23.60;11.45;;;;;;;16.42;66.91;101513.78;4969267;28;20552;-80
2021/06/03 07:38:59;;;;;;;14.88;10.80;;;;;;;16.51;66.34;101511.63;4970422;29;20042;-79
2021/06/03 07:41:25;;;;;;;15.27;10.60;;;;;;;16.42;66.18;101520.84;4967827;29;20116;-79
2021/06/03 07:43:50;;;;;;;13.82;9.98;;;;;;;16.42;66.36;101531.38;4966899;29;20059;-80
2021/06/03 07:46:16;;;;;;;13.93;11.68;;;;;;;16.15;66.92;101521.25;4964923;29;20032;-79
2021/06/03 07:48:42;;;;;;;18.30;10.70;;;;;;;15.92;67.65;101530.25;4948138;29;20039;-80
2021/06/03 07:51:11;;;;;;;19.05;11.40;;;;;;;16.00;68.24;101546.53;4945204;29;20047;-80
2021/06/03 07:53:37;;;;;;;16.25;11.00;;;;;;;16.00;68.27;101542.13;4960738;29;20035;-81
2021/06/03 07:56:03;;;;;;;23.17;12.73;;;;;;;16.02;68.34;101551.75;4961499;29;20042;-79
2021/06/03 07:58:29;;;;;;;19.95;12.00;;;;;;;16.12;68.11;101551.22;4960418;28;20035;-80
2021/06/03 08:00:54;;;;;;;13.15;9.80;;;;;;;15.86;67.85;101506.88;4959817;28;20512;-78
2021/06/03 08:03:20;;;;;;;18.95;9.50;;;;;;;16.32;67.10;101544.16;4958480;29;20035;-79
2021/06/03 08:05:47;;;;;;;15.20;9.32;;;;;;;16.62;66.19;101554.97;4958796;28;20110;-79
2021/06/03 08:08:12;;;;;;;12.07;9.60;;;;;;;16.57;65.73;101550.84;4960234;28;20093;-79
2021/06/03 08:10:41;;;;;;;12.90;10.23;;;;;;;16.42;66.08;101520.84;4960384;28;20046;-79
2021/06/03 08:13:10;;;;;;;16.85;10.10;;;;;;;16.57;65.69;101571.94;4959899;28;20095;-79
2021/06/03 08:15:44;;;;;;;17.33;10.32;;;;;;;16.70;64.70;101565.09;4946063;29;20377;-79
2021/06/03 08:18:10;;;;;;;11.90;9.02;;;;;;;16.96;64.24;101574.34;4952234;29;20039;-79
2021/06/03 08:20:41;;;;;;;17.55;9.23;;;;;;;16.79;63.47;101514.53;4959787;29;20421;-79
2021/06/03 08:23:10;;;;;;;15.40;9.13;;;;;;;17.28;62.98;101568.34;4958858;29;20119;-79
2021/06/03 08:25:36;;;;;;;13.20;9.15;;;;;;;17.27;62.35;101549.03;4956449;29;20095;-80
2021/06/03 08:28:04;;;;;;;14.63;8.95;;;;;;;17.63;61.85;101564.78;4962905;28;20121;-80
2021/06/03 08:30:30;;;;;;;12.98;9.48;;;;;;;17.30;61.84;101519.00;4962352;28;20043;-80
2021/06/03 08:32:57;;;;;;;14.52;8.73;;;;;;;17.63;61.38;101580.63;4962141;28;20082;-80
2021/06/03 08:35:24;;;;;;;13.07;8.55;;;;;;;17.65;61.68;101592.81;4967549;29;20392;-80
2021/06/03 08:37:54;;;;;;;14.20;9.45;;;;;;;17.46;61.58;101585.00;4962949;28;20462;-80
2021/06/03 08:40:25;;;;;;;12.30;8.23;;;;;;;17.47;61.62;101596.41;4962872;28;20392;-79
2021/06/03 08:42:55;;;;;;;13.45;8.43;;;;;;;17.28;61.57;101585.03;4945949;29;20042;-80
2021/06/03 08:45:24;;;;;;;10.98;7.43;;;;;;;17.07;61.61;101576.44;4945650;29;20097;-83
2021/06/03 08:47:52;;;;;;;12.90;8.15;;;;;;;16.69;62.20;101555.50;4962041;29;20476;-83
2021/06/03 08:50:20;;;;;;;13.45;8.15;;;;;;;16.89;62.56;101596.66;4962190;29;20110;-83
2021/06/03 08:52:47;;;;;;;11.85;7.78;;;;;;;17.15;61.72;101599.81;4962033;29;20035;-82
2021/06/03 08:58:07;;;;;;;12.65;8.13;;;;;;;17.06;62.55;101593.19;4962191;29;20054;-82
2021/06/03 09:00:34;;;;;;;11.88;7.68;;;;;;;16.89;62.72;101567.66;4956897;29;20511;-80
2021/06/03 09:03:00;;;;;;;11.50;7.60;;;;;;;17.14;61.72;101598.09;4947771;29;20065;-79
2021/06/03 09:05:27;;;;;;;10.77;7.30;;;;;;;17.22;61.46;101581.88;4962161;29;20090;-78
2021/06/03 09:07:53;;;;;;;10.07;7.03;;;;;;;17.35;61.07;101585.56;4960697;29;20039;-80
2021/06/03 09:10:36;;;;;;;8.68;6.55;;;;;;;17.59;59.93;101604.53;4957612;29;20076;-79
2021/06/03 09:13:29;;;;;;;12.45;7.40;;;;;;;17.86;59.41;101588.13;4956528;29;20500;-81
2021/06/03 09:16:11;;;;;;;8.45;6.47;;;;;;;18.10;58.66;101597.47;4961968;28;20031;-81
2021/06/03 09:18:40;;;;;;;9.20;6.57;;;;;;;18.22;58.36;101589.72;4959625;28;20032;-80
2021/06/03 09:21:23;;;;;;;9.05;6.20;;;;;;;18.83;56.27;101600.31;4945534;29;20028;-81
2021/06/03 09:24:07;;;;;;;7.55;5.35;;;;;;;19.00;55.20;101601.16;4945575;29;20126;-81
2021/06/03 09:26:46;;;;;;;8.77;5.40;;;;;;;19.12;55.32;101596.94;4945973;29;20063;-81
2021/06/03 09:29:21;;;;;;;10.23;5.82;;;;;;;18.79;55.30;101595.31;4948422;29;20039;-80
2021/06/03 09:31:46;;;;;;;7.80;5.45;;;;;;;18.57;55.80;101607.13;4963719;29;20039;-80
2021/06/03 09:34:16;;;;;;;8.48;5.65;;;;;;;18.48;55.33;101595.31;4964494;28;20071;-80
2021/06/03 09:36:54;;;;;;;8.80;5.50;;;;;;;18.35;55.66;101604.88;4950718;29;20070;-79
2021/06/03 09:39:32;;;;;;;11.18;5.97;;;;;;;18.04;56.62;101625.06;4965349;29;20062;-79
2021/06/03 09:41:59;;;;;;;7.68;6.15;;;;;;;18.01;56.11;101601.47;4965736;29;20499;-79
2021/06/03 09:44:38;;;;;;;10.18;5.90;;;;;;;18.55;54.69;101619.59;4946634;29;20031;-79
2021/06/03 09:47:06;;;;;;;8.00;5.28;;;;;;;18.50;54.14;101617.19;4946721;29;20031;-79
2021/06/03 09:49:39;;;;;;;5.85;4.20;;;;;;;18.53;53.35;101606.47;4966236;29;20042;-78
2021/06/03 09:52:07;;;;;;;7.40;4.30;;;;;;;18.54;53.29;101602.00;4966497;28;20039;-80
2021/06/03 09:54:35;;;;;;;7.93;5.20;;;;;;;18.80;53.05;101602.31;4965448;28;20043;-78
2021/06/03 09:57:06;;;;;;;7.93;4.68;;;;;;;18.60;53.56;101609.59;4960005;29;20027;-79
2021/06/03 09:59:39;;;;;;;8.02;5.63;;;;;;;18.53;53.33;101585.31;4965146;29;20036;-78
2021/06/03 10:02:14;;;;;;;8.70;5.22;;;;;;;18.97;52.99;101604.84;4965379;28;20492;-79
2021/06/03 10:04:43;;;;;;;10.52;5.65;;;;;;;19.08;53.21;101611.28;4965757;28;20036;-79
2021/06/03 10:07:14;;;;;;;7.72;5.20;;;;;;;19.02;53.19;101612.50;4959478;29;20032;-79
2021/06/03 10:09:56;;;;;;;8.80;4.75;;;;;;;19.00;54.36;101617.03;4966873;29;20042;-80
2021/06/03 10:12:25;;;;;;;9.32;4.65;;;;;;;18.53;56.14;101626.78;4969987;28;20039;-79
2021/06/03 10:15:20;;;;;;;6.85;4.38;;;;;;;18.62;55.73;101631.50;4947257;29;20031;-81
2021/06/03 10:17:58;;;;;;;;;;;;;;;18.54;55.61;101645.19;4955256;29;20044;-79
2021/06/03 10:20:31;;;;;;;9.35;4.20;;;;;;;18.30;56.60;101649.22;4966902;29;19925;-81
2021/06/03 10:22:57;;;;;;;7.75;4.40;;;;;;;18.27;56.48;101644.94;4967294;28;20046;-82
2021/06/03 10:25:26;;;;;;;7.15;3.97;;;;;;;18.66;55.77;101659.50;4966392;29;20129;-82
2021/06/03 10:27:58;;;;;;;7.55;4.15;;;;;;;18.76;54.68;101635.16;4966477;28;20062;-82
2021/06/03 10:30:30;;;;;;;7.95;4.18;;;;;;;18.98;54.67;101648.00;4962790;29;20039;-82
2021/06/03 10:32:59;;;;;;;6.65;4.07;;;;;;;19.28;53.73;101657.75;4966479;29;20396;-82
2021/06/03 10:35:33;;;;;;;8.93;3.97;;;;;;;19.04;53.71;101630.00;4970476;28;20123;-82
2021/06/03 10:37:59;;;;;;;8.02;4.53;;;;;;;18.61;54.49;101623.69;4977016;28;20047;-83
2021/06/03 10:40:37;;;;;;;5.97;4.22;;;;;;;18.71;54.96;101665.38;4978256;28;20031;-82
2021/06/03 10:43:05;;;;;;;6.45;3.75;;;;;;;18.73;55.33;101671.41;4975387;28;20043;-83
2021/06/03 10:45:32;;;;;;;8.45;3.90;;;;;;;18.35;55.57;101626.00;4965877;29;20035;-83
2021/06/03 10:47:58;;;;;;;7.50;4.25;;;;;;;18.61;55.40;101671.28;4965368;29;20090;-82
2021/06/03 10:50:29;;;;;;;8.82;4.00;;;;;;;18.70;55.42;101670.72;4964221;29;20047;-83
2021/06/03 10:52:56;;;;;;;7.10;4.03;;;;;;;18.69;55.41;101677.81;4949414;29;20094;-82
2021/06/03 10:55:30;;;;;;;6.05;4.18;;;;;;;18.61;55.30;101680.03;4931703;29;20400;-83
2021/06/03 10:58:00;;;;;;;7.57;3.83;;;;;;;18.86;54.65;101668.94;4973649;29;20111;-81
2021/06/03 11:00:42;;;;;;;10.13;3.97;;;;;;;19.11;54.09;101669.31;4975094;28;20400;-81
2021/06/03 11:03:21;;;;;;;6.05;4.00;;;;;;;19.62;52.90;101679.53;4981367;28;20059;-80
2021/06/03 11:06:02;;;;;;;5.78;4.43;;;;;;;19.58;52.42;101664.75;4975131;28;20069;-81
2021/06/03 11:08:32;;;;;;;6.70;4.53;;;;;;;19.68;51.78;101619.06;4965663;29;20058;-81
2021/06/03 11:11:26;;;;;;;6.68;3.80;;;;;;;20.43;50.15;101670.09;4950494;29;20354;-80
2021/06/03 11:13:53;;;;;;;6.68;3.95;;;;;;;20.50;50.11;101676.72;4960457;28;20051;-80
2021/06/03 11:16:25;;;;;;;7.22;3.70;;;;;;;20.00;51.24;101673.69;4958425;29;20483;-80
2021/06/03 11:18:55;;;;;;;6.03;3.50;;;;;;;20.23;50.81;101679.34;4956851;29;20039;-80
2021/06/03 11:21:33;;;;;;;7.25;3.67;;;;;;;19.88;51.08;101672.66;4964837;29;20035;-81
2021/06/03 11:24:34;;;;;;;6.22;3.63;;;;;;;19.47;52.70;101666.28;4964780;29;20043;-81
2021/06/03 11:27:03;;;;;;;7.25;3.70;;;;;;;19.67;51.90;101657.09;4953635;29;20091;-81
2021/06/03 11:29:32;;;;;;;5.45;3.50;;;;;;;19.76;50.88;101676.91;4966542;29;20075;-81